createdAt,value
2023-01-09T00:02:33.963Z,2.77
2023-01-09T00:06:37.351Z,2.60
2023-01-09T00:10:40.175Z,2.90
2023-01-09T00:14:44.193Z,2.90
2023-01-09T00:18:48.290Z,2.50
2023-01-09T00:22:51.031Z,2.53
2023-01-09T00:26:53.732Z,2.17
2023-01-09T00:30:57.440Z,2.20
2023-01-09T00:35:01.612Z,2.60
2023-01-09T00:39:04.877Z,2.73
2023-01-09T00:43:07.680Z,2.60
2023-01-09T00:47:15.879Z,3.10
2023-01-09T00:51:21.332Z,2.80
2023-01-09T00:55:24.481Z,2.90
2023-01-09T00:59:28.771Z,3.30
2023-01-09T01:03:31.520Z,3.00
2023-01-09T01:07:41.442Z,3.27
2023-01-09T01:11:44.178Z,2.27
2023-01-09T01:15:47.855Z,2.37
2023-01-09T01:19:50.588Z,2.50
2023-01-09T01:23:54.711Z,2.97
2023-01-09T01:27:57.496Z,2.83
2023-01-09T01:32:00.239Z,3.03
2023-01-09T01:36:04.774Z,2.50
2023-01-09T01:40:12.507Z,2.10
2023-01-09T01:44:52.630Z,2.57
2023-01-09T01:48:58.768Z,2.37
2023-01-09T01:53:08.318Z,2.60
2023-01-09T01:57:13.138Z,2.60
2023-01-09T02:01:16.567Z,2.90
2023-01-09T02:05:20.366Z,3.00
2023-01-09T02:09:25.249Z,3.20
2023-01-09T02:13:30.241Z,2.63
2023-01-09T02:18:10.231Z,2.87
2023-01-09T02:22:22.972Z,2.10
2023-01-09T02:26:38.958Z,2.67
2023-01-09T02:30:47.568Z,2.40
2023-01-09T02:35:00.006Z,2.40
2023-01-09T02:39:16.987Z,2.37
2023-01-09T02:43:20.620Z,2.00
2023-01-09T02:47:42.943Z,2.13
2023-01-09T02:51:52.889Z,2.10
2023-01-09T02:56:06.136Z,1.90
2023-01-09T03:00:17.514Z,2.10
2023-01-09T03:04:31.468Z,2.30
2023-01-09T03:08:40.031Z,2.10
2023-01-09T03:12:44.567Z,2.27
2023-01-09T03:16:52.089Z,2.40
2023-01-09T03:20:56.667Z,2.40
2023-01-09T03:24:59.446Z,2.60
2023-01-09T03:29:02.481Z,2.33
2023-01-09T03:33:05.281Z,1.87
2023-01-09T03:37:09.347Z,2.20
2023-01-09T03:41:12.189Z,2.57
2023-01-09T03:45:15.170Z,1.73
2023-01-09T03:49:19.066Z,2.73
2023-01-09T03:53:24.723Z,2.33
2023-01-09T03:57:27.456Z,2.23
2023-01-09T04:01:30.267Z,2.13
2023-01-09T04:05:33.085Z,2.93
2023-01-09T04:09:37.149Z,2.50
2023-01-09T04:13:39.943Z,2.50
2023-01-09T04:17:42.768Z,2.73
2023-01-09T04:21:45.520Z,2.20
2023-01-09T04:25:49.646Z,2.80
2023-01-09T04:29:52.390Z,2.40
2023-01-09T04:33:55.161Z,2.40
2023-01-09T04:37:57.881Z,2.50
2023-01-09T04:42:02.047Z,2.60
2023-01-09T04:46:04.846Z,2.70
2023-01-09T04:50:08.182Z,2.63
2023-01-09T04:54:11.391Z,3.10
2023-01-09T04:58:15.502Z,2.60
2023-01-09T05:02:18.293Z,2.70
2023-01-09T05:06:20.995Z,3.63
2023-01-09T05:10:23.738Z,3.30
2023-01-09T05:14:27.860Z,3.23
2023-01-09T05:18:30.776Z,3.17
2023-01-09T05:22:33.580Z,2.70
2023-01-09T05:26:36.348Z,2.90
2023-01-09T05:30:40.534Z,3.30
2023-01-09T05:34:43.292Z,3.37
2023-01-09T05:38:46.051Z,3.07
2023-01-09T05:42:48.799Z,3.57
2023-01-09T05:46:52.914Z,3.33
2023-01-09T05:50:55.689Z,3.73
2023-01-09T05:54:58.408Z,4.10
2023-01-09T05:59:01.153Z,4.03
2023-01-09T06:03:05.445Z,3.50
2023-01-09T06:07:08.283Z,3.73
2023-01-09T06:11:10.997Z,3.97
2023-01-09T06:15:15.381Z,3.67
2023-01-09T06:19:19.511Z,3.43
2023-01-09T06:23:22.223Z,3.50
2023-01-09T06:27:24.918Z,3.57
2023-01-09T06:31:27.801Z,3.97
2023-01-09T06:35:31.829Z,3.30
2023-01-09T06:39:34.572Z,3.40
2023-01-09T06:43:37.330Z,3.10
2023-01-09T06:47:40.313Z,3.60
2023-01-09T06:51:44.505Z,3.00
2023-01-09T06:55:48.105Z,3.50
2023-01-09T06:59:50.904Z,3.50
2023-01-09T07:03:53.673Z,3.33
2023-01-09T07:07:57.902Z,3.27
2023-01-09T07:12:00.603Z,3.30
2023-01-09T07:16:05.383Z,3.67
2023-01-09T07:20:09.817Z,3.40
2023-01-09T07:24:13.901Z,3.47
2023-01-09T07:28:16.607Z,3.40
2023-01-09T07:32:19.337Z,3.30
2023-01-09T07:36:22.367Z,3.50
2023-01-09T07:40:26.998Z,3.53
2023-01-09T07:44:30.100Z,3.20
2023-01-09T07:48:32.872Z,3.17
2023-01-09T07:52:35.890Z,2.53
2023-01-09T07:56:40.522Z,3.63
2023-01-09T08:00:43.443Z,2.87
2023-01-09T08:04:47.015Z,2.90
2023-01-09T08:08:50.012Z,2.93
2023-01-09T08:12:54.460Z,3.27
2023-01-09T08:16:57.572Z,3.10
2023-01-09T08:21:00.773Z,2.70
2023-01-09T08:25:04.016Z,3.17
2023-01-09T08:29:08.221Z,3.10
2023-01-09T08:33:11.173Z,3.20
2023-01-09T08:37:14.067Z,3.20
2023-01-09T08:41:34.830Z,3.07
2023-01-09T08:45:56.934Z,3.13
2023-01-09T08:50:00.010Z,3.03
2023-01-09T08:54:02.934Z,3.10
2023-01-09T08:58:05.925Z,3.13
2023-01-09T09:02:10.445Z,3.30
2023-01-09T09:06:13.474Z,3.20
2023-01-09T09:10:17.283Z,2.53
2023-01-09T09:14:37.655Z,3.33
2023-01-09T09:18:43.183Z,2.97
2023-01-09T09:22:46.867Z,3.70
2023-01-09T09:26:50.555Z,3.50
2023-01-09T09:30:53.578Z,3.53
2023-01-09T09:34:57.914Z,3.03
2023-01-09T09:39:02.529Z,3.13
2023-01-09T09:44:12.788Z,3.83
2023-01-09T09:48:32.179Z,3.33
2023-01-09T09:52:44.900Z,3.40
2023-01-09T09:56:52.737Z,3.13
2023-01-09T10:00:56.915Z,4.27
2023-01-09T10:05:04.961Z,3.80
2023-01-09T10:09:17.894Z,4.30
2023-01-09T10:13:41.157Z,3.50
2023-01-09T10:17:56.649Z,3.50
2023-01-09T10:22:08.086Z,4.30
2023-01-09T10:26:21.933Z,3.97
2023-01-09T10:30:33.644Z,4.83
2023-01-09T10:34:50.871Z,4.60
2023-01-09T10:38:58.372Z,3.80
2023-01-09T10:43:08.165Z,4.60
2023-01-09T10:47:17.339Z,4.30
2023-01-09T10:51:25.335Z,3.33
2023-01-09T10:55:36.266Z,3.40
2023-01-09T10:59:41.648Z,3.73
2023-01-09T11:03:44.669Z,3.87
2023-01-09T11:07:52.330Z,3.30
2023-01-09T11:11:55.461Z,3.50
2023-01-09T11:16:09.055Z,3.97
2023-01-09T11:20:17.958Z,4.70
2023-01-09T11:24:30.877Z,4.30
2023-01-09T11:28:34.178Z,5.97
2023-01-09T11:32:39.676Z,4.63
2023-01-09T11:36:43.011Z,6.17
2023-01-09T11:40:50.069Z,5.63
2023-01-09T11:44:58.997Z,5.57
2023-01-09T11:49:05.463Z,5.40
2023-01-09T11:53:18.902Z,4.40
2023-01-09T11:57:23.555Z,2.20
2023-01-09T12:01:52.110Z,1.50
2023-01-09T12:06:04.410Z,1.50
2023-01-09T12:10:27.715Z,1.90
2023-01-09T12:14:46.907Z,2.20
2023-01-09T12:19:01.445Z,1.80
2023-01-09T12:23:21.541Z,2.60
2023-01-09T12:27:40.849Z,3.30
2023-01-09T12:31:59.186Z,2.57
2023-01-09T12:36:15.196Z,2.47
2023-01-09T12:40:37.067Z,4.30
2023-01-09T12:45:00.421Z,5.30
2023-01-09T12:49:31.389Z,4.30
2023-01-09T12:53:42.305Z,3.87
2023-01-09T12:57:51.457Z,3.63
2023-01-09T13:01:55.264Z,4.73
2023-01-09T13:05:59.474Z,4.13
2023-01-09T13:10:08.577Z,5.13
2023-01-09T13:14:18.867Z,4.40
2023-01-09T13:18:28.610Z,4.93
2023-01-09T13:22:31.527Z,5.70
2023-01-09T13:26:39.108Z,4.90
2023-01-09T13:31:09.371Z,4.00
2023-01-09T13:35:14.626Z,5.60
2023-01-09T13:39:24.425Z,4.47
2023-01-09T13:43:27.493Z,7.57
2023-01-09T13:47:32.800Z,10.77
2023-01-09T13:51:57.811Z,5.03
2023-01-09T13:56:07.124Z,3.50
2023-01-09T14:00:47.583Z,4.23
2023-01-09T14:04:52.067Z,4.53
2023-01-09T14:09:13.748Z,4.23
2023-01-09T14:13:19.637Z,3.60
2023-01-09T14:17:32.464Z,4.47
2023-01-09T14:21:52.117Z,4.17
2023-01-09T14:25:56.172Z,7.00
2023-01-09T14:30:28.054Z,5.83
2023-01-09T14:34:36.564Z,5.53
2023-01-09T14:38:44.831Z,6.80
2023-01-09T14:42:52.783Z,7.43
2023-01-09T14:46:57.294Z,6.00
2023-01-09T14:51:01.320Z,4.20
2023-01-09T14:55:18.586Z,4.50
2023-01-09T14:59:22.689Z,4.17
2023-01-09T15:03:30.468Z,3.13
2023-01-09T15:07:40.507Z,3.67
2023-01-09T15:11:45.527Z,2.63
2023-01-09T15:15:50.197Z,3.47
2023-01-09T15:19:53.804Z,2.50
2023-01-09T15:24:11.783Z,3.20
2023-01-09T15:28:25.973Z,3.50
2023-01-09T15:32:30.890Z,3.40
2023-01-09T15:36:38.606Z,3.43
2023-01-09T15:40:41.676Z,3.20
2023-01-09T15:44:49.814Z,3.10
2023-01-09T15:48:55.030Z,3.80
2023-01-09T15:52:58.858Z,3.90
2023-01-09T15:57:35.752Z,5.53
2023-01-09T16:01:41.613Z,8.73
2023-01-09T16:05:47.319Z,10.13
2023-01-09T16:09:52.903Z,10.00
2023-01-09T16:13:57.693Z,10.83
2023-01-09T16:18:19.139Z,8.57
2023-01-09T16:22:24.298Z,8.87
2023-01-09T16:26:28.475Z,10.73
2023-01-09T16:30:31.455Z,10.90
2023-01-09T16:34:37.180Z,10.17
2023-01-09T16:38:42.615Z,10.67
2023-01-09T16:43:01.883Z,10.40
2023-01-09T16:47:05.050Z,9.90
2023-01-09T16:51:15.455Z,7.47
2023-01-09T16:55:18.434Z,12.80
2023-01-09T16:59:24.556Z,12.50
2023-01-09T17:03:28.027Z,20.03
2023-01-09T17:07:34.434Z,23.90
2023-01-09T17:11:39.327Z,8.53
2023-01-09T17:15:42.287Z,8.93
2023-01-09T17:19:46.587Z,13.37
2023-01-09T17:24:12.082Z,9.87
2023-01-09T17:28:33.917Z,10.37
2023-01-09T17:32:36.883Z,7.17
2023-01-09T17:36:41.595Z,7.13
2023-01-09T17:40:46.953Z,12.77
2023-01-09T17:44:49.868Z,14.50
2023-01-09T17:48:54.140Z,15.23
2023-01-09T17:52:57.348Z,17.60
2023-01-09T17:57:02.864Z,12.90
2023-01-09T18:01:06.029Z,8.90
2023-01-09T18:05:09.556Z,10.27
2023-01-09T18:09:17.055Z,11.03
2023-01-09T18:13:21.503Z,11.10
2023-01-09T18:17:24.522Z,13.13
2023-01-09T18:21:29.435Z,11.10
2023-01-09T18:25:32.415Z,10.17
2023-01-09T18:29:37.089Z,14.77
2023-01-09T18:33:41.164Z,16.00
2023-01-09T18:37:44.212Z,15.63
2023-01-09T18:41:47.196Z,16.40
2023-01-09T18:45:55.023Z,15.50
2023-01-09T18:49:58.094Z,15.90
2023-01-09T18:54:01.738Z,13.27
2023-01-09T18:58:07.586Z,17.87
2023-01-09T19:02:20.446Z,16.07
2023-01-09T19:06:23.653Z,18.73
2023-01-09T19:10:26.582Z,18.27
2023-01-09T19:14:29.792Z,15.00
2023-01-09T19:18:39.263Z,15.33
2023-01-09T19:22:41.960Z,11.40
2023-01-09T19:26:46.422Z,12.00
2023-01-09T19:30:55.580Z,13.30
2023-01-09T19:34:59.976Z,13.27
2023-01-09T19:39:04.722Z,11.67
2023-01-09T19:43:07.743Z,10.10
2023-01-09T19:47:11.932Z,10.10
2023-01-09T19:51:18.771Z,16.87
2023-01-09T19:55:22.183Z,19.53
2023-01-09T19:59:25.025Z,29.77
2023-01-09T20:03:28.377Z,24.97
2023-01-09T20:07:32.610Z,12.40
2023-01-09T20:11:35.531Z,10.97
2023-01-09T20:15:40.564Z,14.30
2023-01-09T20:19:45.463Z,13.43
2023-01-09T20:23:50.939Z,12.53
2023-01-09T20:27:53.879Z,12.50
2023-01-09T20:31:56.961Z,11.50
2023-01-09T20:36:01.613Z,11.73
2023-01-09T20:40:06.912Z,13.70
2023-01-09T20:44:14.236Z,9.53
2023-01-09T20:48:17.175Z,9.77
2023-01-09T20:52:22.538Z,8.43
2023-01-09T20:56:28.755Z,5.97
2023-01-09T21:00:32.409Z,5.47
2023-01-09T21:04:35.356Z,4.60
2023-01-09T21:08:38.616Z,3.70
2023-01-09T21:12:44.462Z,3.37
2023-01-09T21:16:54.684Z,2.50
2023-01-09T21:20:58.355Z,2.17
2023-01-09T21:25:01.625Z,2.07
2023-01-09T21:29:08.212Z,2.50
2023-01-09T21:33:12.378Z,2.13
2023-01-09T21:37:16.692Z,2.27
2023-01-09T21:41:39.599Z,2.50
2023-01-09T21:46:01.318Z,2.73
2023-01-09T21:50:04.838Z,2.73
2023-01-09T21:54:08.053Z,2.40
2023-01-09T21:58:11.518Z,3.47
2023-01-09T22:02:16.778Z,3.23
2023-01-09T22:06:19.869Z,3.10
2023-01-09T22:10:22.921Z,3.23
2023-01-09T22:14:25.792Z,5.00
2023-01-09T22:18:30.296Z,6.93
2023-01-09T22:22:32.996Z,7.07
2023-01-09T22:26:36.217Z,9.07
2023-01-09T22:30:41.261Z,7.43
2023-01-09T22:34:47.245Z,5.70
2023-01-09T22:38:52.163Z,4.57
2023-01-09T22:42:55.761Z,19.57
2023-01-09T22:47:00.298Z,9.67
2023-01-09T22:51:06.476Z,9.83
2023-01-09T22:55:11.355Z,12.27
2023-01-09T22:59:15.691Z,9.33
2023-01-09T23:03:18.726Z,11.20
2023-01-09T23:07:23.459Z,9.80
2023-01-09T23:11:46.713Z,10.07
2023-01-09T23:15:49.886Z,8.60
2023-01-09T23:19:53.656Z,9.43
2023-01-09T23:23:59.974Z,10.03
2023-01-09T23:28:02.868Z,8.63
2023-01-09T23:32:06.435Z,9.10
2023-01-09T23:36:10.343Z,8.90
2023-01-09T23:40:14.671Z,11.10
2023-01-09T23:44:19.645Z,9.03
2023-01-09T23:48:25.463Z,8.40
2023-01-09T23:52:31.320Z,8.20
2023-01-09T23:56:36.065Z,5.70
